Time;durP1;ratioP1;P1;durP2;ratioP2;P2;SDS_P1;SDS_P2;PMS_P1;PMS_P2;Temp;Humidity;BMP_temperature;BMP_pressure;BME280_temperature;BME280_humidity;BME280_pressure;Samples;Min_cycle;Max_cycle;Signal;HPM_P1;HPM_P2
2023/11/08 00:01:04;;;;;;;2.63;1.40;;;;;;;5.41;100.00;98257.03;5080974;28;20236;-80
2023/11/08 00:03:30;;;;;;;2.70;1.23;;;;;;;5.34;100.00;98255.63;5079833;28;20207;-80
2023/11/08 00:05:57;;;;;;;2.27;1.23;;;;;;;5.35;100.00;98254.69;5080455;28;20220;-80
2023/11/08 00:08:24;;;;;;;2.70;1.10;;;;;;;5.34;100.00;98255.63;5081464;28;20223;-81
2023/11/08 00:10:51;;;;;;;2.73;1.30;;;;;;;5.26;100.00;98247.25;5082768;28;20211;-80
2023/11/08 00:13:20;;;;;;;4.87;1.10;;;;;;;5.26;100.00;98242.00;5082692;28;20208;-80
2023/11/08 00:15:47;;;;;;;2.53;0.93;;;;;;;5.25;100.00;98245.53;5081801;28;20215;-80
2023/11/08 00:18:13;;;;;;;2.20;1.50;;;;;;;5.22;100.00;98240.47;5081595;28;20241;-80
2023/11/08 00:20:40;;;;;;;2.30;1.20;;;;;;;5.21;100.00;98244.00;5081483;28;20576;-83
2023/11/08 00:23:09;;;;;;;2.13;0.93;;;;;;;5.20;100.00;98239.66;5081213;28;20203;-82
2023/11/08 00:25:37;;;;;;;1.63;1.10;;;;;;;5.23;100.00;98247.41;5081446;28;20650;-81
2023/11/08 00:28:03;;;;;;;2.03;1.30;;;;;;;5.23;100.00;98252.63;5081499;28;20211;-82
2023/11/08 00:30:30;;;;;;;2.57;1.47;;;;;;;5.36;100.00;98261.63;5081413;28;20213;-81
2023/11/08 00:32:56;;;;;;;2.57;1.10;;;;;;;5.55;100.00;98262.47;5080653;28;20249;-82
2023/11/08 00:35:23;;;;;;;1.50;1.20;;;;;;;5.78;100.00;98267.47;5080598;28;20215;-82
2023/11/08 00:37:49;;;;;;;2.70;1.70;;;;;;;5.95;100.00;98264.91;5080453;28;20243;-82
2023/11/08 00:40:16;;;;;;;1.23;1.03;;;;;;;6.18;100.00;98266.41;5080508;28;20587;-80
2023/11/08 00:42:44;;;;;;;1.47;1.03;;;;;;;6.28;100.00;98258.00;5081067;28;20232;-80
2023/11/08 00:45:11;;;;;;;2.40;1.20;;;;;;;6.36;100.00;98261.06;5081429;28;20219;-80
2023/11/08 00:47:38;;;;;;;3.83;1.27;;;;;;;6.48;100.00;98260.44;5080464;28;20249;-80
2023/11/08 00:50:06;;;;;;;1.87;1.10;;;;;;;6.54;100.00;98262.75;5080578;28;20257;-80
2023/11/08 00:52:32;;;;;;;1.43;1.10;;;;;;;6.61;100.00;98265.94;5080100;28;20318;-80
2023/11/08 00:55:00;;;;;;;1.87;0.90;;;;;;;6.64;100.00;98266.63;5080688;28;20211;-80
2023/11/08 00:57:26;;;;;;;3.50;1.20;;;;;;;6.69;100.00;98275.13;5080607;28;20669;-80
2023/11/08 00:59:54;;;;;;;1.60;1.27;;;;;;;6.69;100.00;98269.88;5081460;28;20218;-80
2023/11/08 01:02:21;;;;;;;3.83;1.33;;;;;;;6.68;100.00;98278.69;5080310;28;20236;-80
2023/11/08 01:04:47;;;;;;;2.80;1.20;;;;;;;6.73;100.00;98274.03;5080143;28;20643;-80
2023/11/08 01:07:14;;;;;;;1.77;1.30;;;;;;;6.74;100.00;98267.88;5080888;28;20235;-80
2023/11/08 01:09:41;;;;;;;1.37;0.80;;;;;;;6.73;100.00;98270.56;5080071;28;20310;-80
2023/11/08 01:12:07;;;;;;;3.10;1.03;;;;;;;6.70;100.00;98271.56;5080462;28;20719;-79
2023/11/08 01:14:34;;;;;;;1.17;0.93;;;;;;;6.70;100.00;98271.56;5079036;28;20220;-80
2023/11/08 01:17:02;;;;;;;1.23;1.10;;;;;;;6.68;100.00;98267.31;5078953;28;20722;-80
2023/11/08 01:19:29;;;;;;;1.97;0.90;;;;;;;6.63;100.00;98272.81;5080286;28;20231;-80
2023/11/08 01:21:55;;;;;;;2.63;1.40;;;;;;;6.53;100.00;98268.94;5081242;28;20269;-80
2023/11/08 01:24:24;;;;;;;1.63;1.00;;;;;;;6.42;100.00;98260.75;5078731;28;20210;-80
2023/11/08 01:26:50;;;;;;;2.20;1.00;;;;;;;6.32;100.00;98259.56;5080386;28;20269;-82
2023/11/08 01:29:16;;;;;;;2.57;1.13;;;;;;;6.19;100.00;98268.97;5080303;28;20552;-80
2023/11/08 01:31:44;;;;;;;2.40;1.30;;;;;;;6.16;100.00;98268.28;5080541;28;20238;-80
2023/11/08 01:34:12;;;;;;;1.30;1.10;;;;;;;6.06;100.00;98265.25;5080493;28;20211;-80
2023/11/08 01:36:38;;;;;;;2.50;1.20;;;;;;;6.02;100.00;98275.94;5079350;28;20211;-80
2023/11/08 01:39:05;;;;;;;2.70;1.03;;;;;;;6.01;100.00;98263.75;5078321;28;20242;-80
2023/11/08 01:41:31;;;;;;;3.83;1.10;;;;;;;5.97;100.00;98268.31;5077558;28;20231;-80
2023/11/08 01:43:59;;;;;;;4.77;1.30;;;;;;;5.92;100.00;98265.06;5077240;28;20210;-80
2023/11/08 01:46:27;;;;;;;2.30;1.40;;;;;;;5.83;100.00;98269.91;5077829;28;20204;-80
2023/11/08 01:48:53;;;;;;;1.87;0.90;;;;;;;5.80;100.00;98270.06;5077823;28;20693;-80
2023/11/08 01:51:22;;;;;;;2.63;1.30;;;;;;;5.74;100.00;98262.44;5077865;28;20240;-80
2023/11/08 01:53:51;;;;;;;1.90;0.90;;;;;;;5.68;100.00;98268.00;5077904;28;20211;-80
2023/11/08 01:56:18;;;;;;;4.07;1.10;;;;;;;5.57;100.00;98260.59;5077970;28;20670;-80
2023/11/08 01:58:45;;;;;;;2.80;1.40;;;;;;;5.54;100.00;98267.78;5076400;28;20227;-81
2023/11/08 02:01:12;;;;;;;2.43;1.20;;;;;;;5.49;100.00;98270.63;5077087;28;20300;-80
2023/11/08 02:03:40;;;;;;;1.80;1.00;;;;;;;5.42;100.00;98261.34;5078084;28;20219;-80
2023/11/08 02:06:08;;;;;;;2.07;1.00;;;;;;;5.33;100.00;98264.41;5078304;28;20215;-80
2023/11/08 02:08:36;;;;;;;1.53;1.13;;;;;;;5.35;100.00;98267.78;5078494;28;20280;-80
2023/11/08 02:11:03;;;;;;;3.30;1.17;;;;;;;5.35;100.00;98257.31;5077906;28;20231;-80
2023/11/08 02:13:30;;;;;;;1.53;1.10;;;;;;;5.36;100.00;98264.25;5078280;28;20213;-80
2023/11/08 02:15:56;;;;;;;1.10;1.00;;;;;;;5.30;100.00;98269.78;5077965;28;20682;-80
2023/11/08 02:18:23;;;;;;;2.93;1.30;;;;;;;5.26;100.00;98267.38;5079091;28;20231;-80
2023/11/08 02:20:49;;;;;;;2.50;1.03;;;;;;;5.17;100.00;98268.63;5078397;28;20218;-80
2023/11/08 02:23:16;;;;;;;1.17;0.97;;;;;;;5.14;100.00;98268.75;5077698;28;20690;-80
2023/11/08 02:25:45;;;;;;;2.77;1.10;;;;;;;5.13;100.00;98255.75;5078143;28;20271;-80
2023/11/08 02:28:12;;;;;;;1.70;0.90;;;;;;;5.17;100.00;98257.28;5078072;28;20223;-80
2023/11/08 02:30:38;;;;;;;1.37;0.90;;;;;;;5.19;100.00;98250.25;5078020;28;20573;-80
2023/11/08 02:33:08;;;;;;;3.70;1.00;;;;;;;5.27;100.00;98254.22;5078159;28;20229;-80
2023/11/08 02:35:35;;;;;;;2.23;1.03;;;;;;;5.27;100.00;98248.09;5078409;28;20215;-80
2023/11/08 02:38:04;;;;;;;0.90;0.90;;;;;;;5.33;100.00;98253.06;5078545;28;20235;-80
2023/11/08 02:40:30;;;;;;;5.17;1.33;;;;;;;5.36;100.00;98245.91;5078430;28;20237;-80
2023/11/08 02:42:58;;;;;;;1.43;0.90;;;;;;;5.34;100.00;98250.38;5077324;28;20314;-80
2023/11/08 02:45:25;;;;;;;1.37;0.80;;;;;;;5.43;100.00;98251.72;5078400;28;20211;-80
2023/11/08 02:47:52;;;;;;;1.50;0.90;;;;;;;5.43;100.00;98246.47;5079033;28;20211;-80
2023/11/08 02:50:19;;;;;;;2.20;0.70;;;;;;;5.43;100.00;98249.09;5082077;28;20221;-80
2023/11/08 02:52:46;;;;;;;2.97;1.20;;;;;;;5.44;100.00;98251.63;5081525;28;20231;-80
2023/11/08 02:55:12;;;;;;;1.47;0.67;;;;;;;5.48;100.00;98253.19;5082226;28;20586;-80
2023/11/08 02:57:39;;;;;;;1.37;0.70;;;;;;;5.55;100.00;98259.00;5082986;28;20210;-80
2023/11/08 03:00:08;;;;;;;2.60;0.80;;;;;;;5.53;100.00;98253.84;5082487;28;20215;-81
2023/11/08 03:02:35;;;;;;;0.70;0.70;;;;;;;5.52;100.00;98257.38;5082322;28;20240;-82
2023/11/08 03:05:02;;;;;;;1.60;0.70;;;;;;;5.56;100.00;98251.03;5081679;28;20271;-82
2023/11/08 03:07:29;;;;;;;0.90;0.80;;;;;;;5.55;100.00;98262.47;5082845;28;20268;-81
2023/11/08 03:09:55;;;;;;;1.40;1.00;;;;;;;5.45;100.00;98258.56;5081672;28;20545;-81
2023/11/08 03:12:21;;;;;;;0.60;0.60;;;;;;;5.45;100.00;98255.09;5082549;28;20249;-81
2023/11/08 03:14:48;;;;;;;1.27;0.90;;;;;;;5.53;100.00;98256.44;5083837;28;20213;-81
2023/11/08 03:17:16;;;;;;;1.27;0.90;;;;;;;5.48;100.00;98253.19;5084412;28;20230;-81
2023/11/08 03:19:43;;;;;;;1.80;1.00;;;;;;;5.42;100.00;98263.09;5084244;28;20239;-81
2023/11/08 03:22:12;;;;;;;0.80;0.80;;;;;;;5.44;100.00;98267.34;5083528;28;20223;-81
2023/11/08 03:24:39;;;;;;;1.60;1.00;;;;;;;5.40;100.00;98268.44;5083258;28;20683;-81
2023/11/08 03:27:05;;;;;;;3.23;1.10;;;;;;;5.42;100.00;98268.34;5083248;28;20199;-81
2023/11/08 03:29:32;;;;;;;1.77;0.90;;;;;;;5.35;100.00;98267.78;5083052;28;20215;-81
2023/11/08 03:32:00;;;;;;;1.47;1.00;;;;;;;5.33;100.00;98271.41;5083233;28;20228;-81
2023/11/08 03:34:28;;;;;;;1.27;0.97;;;;;;;5.41;100.00;98275.38;5083237;28;20700;-81
2023/11/08 03:36:55;;;;;;;1.57;0.90;;;;;;;5.50;100.00;98280.16;5083356;28;20270;-80
2023/11/08 03:39:22;;;;;;;1.27;0.90;;;;;;;5.55;100.00;98278.19;5083070;28;20228;-80
2023/11/08 03:41:48;;;;;;;1.20;1.10;;;;;;;5.53;100.00;98277.44;5083041;28;20231;-80
2023/11/08 03:44:15;;;;;;;2.97;0.80;;;;;;;5.54;100.00;98289.59;5082482;28;20222;-80
2023/11/08 03:46:42;;;;;;;2.80;1.00;;;;;;;5.53;100.00;98282.66;5083302;28;20214;-80
2023/11/08 03:49:08;;;;;;;3.50;1.10;;;;;;;5.62;100.00;98284.00;5082705;28;20203;-80
2023/11/08 03:51:36;;;;;;;1.93;1.10;;;;;;;5.63;100.00;98294.41;5082448;28;20242;-81
2023/11/08 03:54:03;;;;;;;2.77;0.97;;;;;;;5.61;100.00;98290.19;5082544;28;20619;-80
2023/11/08 03:56:30;;;;;;;1.53;1.07;;;;;;;5.62;100.00;98295.31;5083177;28;20211;-80
2023/11/08 03:58:56;;;;;;;1.13;0.90;;;;;;;5.61;100.00;98293.63;5082477;28;20226;-80
2023/11/08 04:01:23;;;;;;;3.13;1.07;;;;;;;5.68;100.00;98297.66;5082621;28;20235;-81
2023/11/08 04:03:49;;;;;;;1.63;1.20;;;;;;;5.76;100.00;98294.69;5082374;28;20203;-81
2023/11/08 04:06:16;;;;;;;2.63;0.90;;;;;;;5.93;100.00;98290.34;5083659;28;20217;-82
2023/11/08 04:08:44;;;;;;;1.03;0.93;;;;;;;5.97;100.00;98299.78;5082862;28;20663;-80
2023/11/08 04:11:10;;;;;;;1.63;1.00;;;;;;;6.01;100.00;98290.84;5083292;28;20230;-80
2023/11/08 04:13:37;;;;;;;2.20;0.93;;;;;;;6.14;100.00;98291.94;5082672;28;20556;-80
2023/11/08 04:16:03;;;;;;;1.87;1.20;;;;;;;6.20;100.00;98286.41;5083457;28;20219;-81
2023/11/08 04:18:30;;;;;;;3.57;0.97;;;;;;;6.24;100.00;98290.56;5082820;28;20231;-81
2023/11/08 04:20:57;;;;;;;2.43;1.00;;;;;;;6.28;100.00;98294.75;5083258;28;20254;-81
2023/11/08 04:23:23;;;;;;;3.00;1.00;;;;;;;6.34;100.00;98297.06;5083474;28;20214;-81
2023/11/08 04:25:51;;;;;;;1.10;1.00;;;;;;;6.39;100.00;98289.81;5082699;28;20688;-81
2023/11/08 04:28:18;;;;;;;2.10;1.30;;;;;;;6.47;100.00;98290.25;5083469;28;20561;-81
2023/11/08 04:30:45;;;;;;;2.10;1.00;;;;;;;6.50;100.00;98295.38;5083980;28;20219;-81
2023/11/08 04:33:12;;;;;;;2.03;1.20;;;;;;;6.50;100.00;98290.13;5083106;28;20233;-81
2023/11/08 04:35:38;;;;;;;1.93;1.13;;;;;;;6.47;100.00;98299.94;5083402;28;20204;-81
2023/11/08 04:38:05;;;;;;;1.50;1.10;;;;;;;6.45;100.00;98292.13;5083705;28;20238;-81
2023/11/08 04:40:31;;;;;;;3.37;1.20;;;;;;;6.35;100.00;98301.38;5081894;28;20237;-81
2023/11/08 04:43:00;;;;;;;3.47;1.10;;;;;;;6.30;100.00;98298.13;5083552;28;20214;-81
2023/11/08 04:45:26;;;;;;;1.17;0.90;;;;;;;6.26;100.00;98301.84;5083130;28;20264;-81
2023/11/08 04:47:53;;;;;;;5.17;1.20;;;;;;;6.19;100.00;98292.59;5083925;28;20212;-81
2023/11/08 04:50:19;;;;;;;1.10;0.97;;;;;;;6.19;100.00;98294.34;5084537;28;20212;-81
2023/11/08 04:52:46;;;;;;;2.17;1.00;;;;;;;6.16;100.00;98295.34;5083931;28;20227;-81
2023/11/08 04:55:12;;;;;;;1.10;1.00;;;;;;;6.04;100.00;98301.19;5084640;28;20260;-81
2023/11/08 04:57:39;;;;;;;2.00;1.10;;;;;;;5.87;100.00;98301.13;5083836;28;20279;-81
2023/11/08 05:00:09;;;;;;;1.33;1.20;;;;;;;5.75;100.00;98299.06;5084482;28;20238;-81
2023/11/08 05:02:35;;;;;;;3.07;1.37;;;;;;;5.67;100.00;98303.84;5084143;28;20321;-81
2023/11/08 05:05:02;;;;;;;1.70;1.33;;;;;;;5.62;100.00;98310.22;5084487;28;20289;-80
2023/11/08 05:07:28;;;;;;;3.13;1.23;;;;;;;5.57;100.00;98299.94;5087309;28;20215;-80
2023/11/08 05:09:55;;;;;;;1.27;1.10;;;;;;;5.59;100.00;98308.59;5087889;28;20214;-81
2023/11/08 05:12:22;;;;;;;1.50;1.30;;;;;;;5.52;100.00;98315.06;5086728;28;20511;-81
2023/11/08 05:14:49;;;;;;;3.50;1.40;;;;;;;5.43;100.00;98301.53;5085453;28;20254;-81
2023/11/08 05:17:17;;;;;;;3.03;1.30;;;;;;;5.39;100.00;98313.06;5079213;28;20215;-81
2023/11/08 05:19:44;;;;;;;2.90;1.30;;;;;;;5.35;100.00;98308.84;5079962;28;20230;-80
2023/11/08 05:22:11;;;;;;;3.33;1.20;;;;;;;5.37;100.00;98302.63;5080081;28;20255;-80
2023/11/08 05:24:38;;;;;;;3.20;1.20;;;;;;;5.38;100.00;98312.19;5080326;28;20208;-81
2023/11/08 05:27:05;;;;;;;2.83;1.20;;;;;;;5.35;100.00;98309.72;5079236;28;20571;-81
2023/11/08 05:29:32;;;;;;;2.77;1.60;;;;;;;5.40;100.00;98313.00;5080513;28;20207;-81
2023/11/08 05:32:09;;;;;;;1.57;1.17;;;;;;;5.42;100.00;98310.28;5097152;28;20568;-81
2023/11/08 05:34:37;;;;;;;2.33;1.40;;;;;;;5.39;100.00;98311.28;5097856;28;20235;-82
2023/11/08 05:37:04;;;;;;;3.83;1.30;;;;;;;5.36;100.00;98313.19;5097361;28;20243;-80
2023/11/08 05:39:31;;;;;;;1.30;1.10;;;;;;;5.36;100.00;98314.03;5096491;28;20202;-80
2023/11/08 05:41:57;;;;;;;3.13;1.23;;;;;;;5.43;100.00;98317.25;5094311;28;20241;-80
2023/11/08 05:44:24;;;;;;;2.10;1.17;;;;;;;5.44;100.00;98314.53;5094988;28;20695;-80
2023/11/08 05:46:51;;;;;;;2.47;1.10;;;;;;;5.52;100.00;98311.56;5095300;28;20214;-80
2023/11/08 05:49:19;;;;;;;3.27;1.33;;;;;;;5.59;100.00;98313.84;5095551;28;20232;-80
2023/11/08 05:51:45;;;;;;;1.97;1.13;;;;;;;5.62;100.00;98312.84;5095208;28;20660;-80
2023/11/08 05:54:11;;;;;;;1.73;1.10;;;;;;;5.63;100.00;98312.75;5094903;28;20209;-80
2023/11/08 05:56:38;;;;;;;1.97;1.20;;;;;;;5.67;100.00;98316.13;5094485;28;20213;-81
2023/11/08 05:59:06;;;;;;;2.77;1.40;;;;;;;5.66;100.00;98325.72;5095117;28;20213;-81
2023/11/08 06:01:32;;;;;;;2.77;1.40;;;;;;;5.64;100.00;98316.25;5094908;28;20245;-80
2023/11/08 06:03:59;;;;;;;1.97;1.30;;;;;;;5.64;100.00;98324.97;5093805;28;20202;-81
2023/11/08 06:06:27;;;;;;;3.27;1.10;;;;;;;5.75;100.00;98319.22;5095481;28;20210;-81
2023/11/08 06:08:54;;;;;;;2.23;1.47;;;;;;;5.82;100.00;98324.13;5095903;28;20214;-81
2023/11/08 06:11:20;;;;;;;3.07;1.60;;;;;;;5.89;100.00;98333.41;5094126;28;20241;-81
2023/11/08 06:13:47;;;;;;;4.57;1.77;;;;;;;5.96;100.00;98334.81;5094699;28;20214;-81
2023/11/08 06:16:13;;;;;;;2.63;1.40;;;;;;;5.91;100.00;98326.31;5094742;28;20211;-81
2023/11/08 06:18:40;;;;;;;2.07;1.33;;;;;;;5.86;100.00;98323.06;5095212;28;20213;-81
2023/11/08 06:21:08;;;;;;;1.67;1.40;;;;;;;5.93;100.00;98329.69;5094586;28;20223;-81
2023/11/08 06:23:36;;;;;;;2.73;1.50;;;;;;;5.96;100.00;98334.81;5094275;28;20282;-81
2023/11/08 06:26:03;;;;;;;2.47;1.60;;;;;;;5.99;100.00;98339.91;5094076;28;20207;-81
2023/11/08 06:28:29;;;;;;;1.60;1.20;;;;;;;5.97;100.00;98341.75;5094438;28;20206;-81
2023/11/08 06:30:56;;;;;;;2.83;1.23;;;;;;;5.92;100.00;98342.91;5094005;28;20731;-81
2023/11/08 06:33:22;;;;;;;1.70;1.40;;;;;;;5.88;100.00;98347.47;5093528;28;20210;-80
2023/11/08 06:35:49;;;;;;;2.90;1.20;;;;;;;5.88;100.00;98347.47;5092644;28;20210;-83
2023/11/08 06:38:15;;;;;;;1.63;1.10;;;;;;;5.86;100.00;98354.53;5092062;28;20213;-79
2023/11/08 06:40:43;;;;;;;3.27;1.70;;;;;;;5.86;100.00;98351.91;5091065;28;20213;-81
2023/11/08 06:43:10;;;;;;;2.73;1.17;;;;;;;5.82;100.00;98353.00;5079224;28;20213;-81
2023/11/08 06:45:37;;;;;;;2.50;1.30;;;;;;;5.79;100.00;98346.97;5077778;28;20233;-80
2023/11/08 06:48:04;;;;;;;3.30;1.50;;;;;;;5.72;100.00;98351.66;5078449;28;20211;-80
2023/11/08 06:50:31;;;;;;;3.70;1.50;;;;;;;5.64;100.00;98352.94;5076646;28;20709;-80
2023/11/08 06:52:57;;;;;;;1.73;1.30;;;;;;;5.56;100.00;98349.84;5077191;28;20726;-80
2023/11/08 06:55:24;;;;;;;3.87;1.53;;;;;;;5.56;100.00;98350.66;5078115;28;20677;-80
2023/11/08 06:57:52;;;;;;;2.73;1.30;;;;;;;5.54;100.00;98357.75;5077063;28;20268;-80
2023/11/08 07:00:18;;;;;;;2.03;1.10;;;;;;;5.49;100.00;98348.41;5078301;28;20263;-79
2023/11/08 07:02:45;;;;;;;2.60;1.37;;;;;;;5.46;100.00;98365.13;5079039;28;20238;-80
2023/11/08 07:05:12;;;;;;;3.27;1.13;;;;;;;5.45;100.00;98366.03;5077989;28;20670;-81
2023/11/08 07:07:40;;;;;;;3.57;1.47;;;;;;;5.47;100.00;98371.22;5078583;28;20203;-80
2023/11/08 07:10:11;;;;;;;2.20;1.40;;;;;;;5.44;100.00;98374.81;5078131;28;20210;-81
2023/11/08 07:12:37;;;;;;;2.60;1.60;;;;;;;5.45;100.00;98379.13;5077153;28;20254;-81
2023/11/08 07:15:06;;;;;;;2.90;1.30;;;;;;;5.50;100.00;98379.78;5078878;28;20218;-80
2023/11/08 07:17:32;;;;;;;2.23;1.27;;;;;;;5.53;100.00;98374.41;5079124;28;20211;-80
2023/11/08 07:19:59;;;;;;;3.63;1.37;;;;;;;5.58;100.00;98374.19;5079158;28;20221;-80
2023/11/08 07:22:26;;;;;;;1.97;1.77;;;;;;;5.62;100.00;98381.00;5078466;28;20246;-80
2023/11/08 07:24:53;;;;;;;4.03;1.50;;;;;;;5.67;100.00;98382.50;5078354;28;20620;-82
2023/11/08 07:27:19;;;;;;;1.90;1.50;;;;;;;5.69;100.00;98388.50;5076914;28;20211;-80
2023/11/08 07:29:46;;;;;;;2.50;1.60;;;;;;;5.73;100.00;98390.09;5078591;28;20238;-81
2023/11/08 07:32:14;;;;;;;2.80;1.50;;;;;;;5.80;100.00;98393.31;5077311;28;20231;-79
2023/11/08 07:34:41;;;;;;;2.73;1.50;;;;;;;5.86;100.00;98391.25;5077738;28;20209;-82
2023/11/08 07:37:07;;;;;;;1.80;1.23;;;;;;;5.89;100.00;98383.25;5077111;28;20592;-81
2023/11/08 07:39:34;;;;;;;2.47;1.30;;;;;;;5.89;100.00;98388.50;5076532;28;20208;-80
2023/11/08 07:42:02;;;;;;;1.67;1.23;;;;;;;5.95;100.00;98390.84;5076386;28;20242;-80
2023/11/08 07:44:30;;;;;;;2.53;1.27;;;;;;;6.01;100.00;98393.16;5076886;28;20326;-79
2023/11/08 07:46:56;;;;;;;2.57;1.70;;;;;;;6.13;100.00;98403.09;5076990;28;20826;-80
2023/11/08 07:49:24;;;;;;;1.97;1.33;;;;;;;6.38;100.00;98402.75;5077075;28;20207;-79
2023/11/08 07:51:51;;;;;;;1.60;1.50;;;;;;;6.49;100.00;98398.72;5077350;28;20242;-79
2023/11/08 07:54:18;;;;;;;3.30;1.60;;;;;;;6.65;100.00;98398.81;5064054;28;20215;-80
2023/11/08 07:56:44;;;;;;;10.57;1.80;;;;;;;6.77;100.00;98393.78;5073742;28;20561;-80
2023/11/08 07:59:11;;;;;;;1.80;1.30;;;;;;;6.93;100.00;98399.09;5066188;28;20208;-80
2023/11/08 08:01:37;;;;;;;1.63;1.03;;;;;;;7.14;100.00;98392.78;5077057;28;20578;-80
2023/11/08 08:04:05;;;;;;;1.50;1.20;;;;;;;7.32;100.00;98397.91;5076301;28;20212;-79
2023/11/08 08:06:33;;;;;;;2.30;1.20;;;;;;;7.41;100.00;98395.66;5077411;28;20275;-80
2023/11/08 08:09:00;;;;;;;1.77;1.20;;;;;;;7.47;100.00;98386.63;5077742;28;20213;-80
2023/11/08 08:11:26;;;;;;;2.00;1.00;;;;;;;7.48;100.00;98388.31;5077195;28;20779;-80
2023/11/08 08:13:53;;;;;;;1.30;0.80;;;;;;;7.50;100.00;98386.44;5077945;28;20204;-80
2023/11/08 08:16:20;;;;;;;1.83;1.00;;;;;;;7.62;100.00;98385.78;5079480;28;20488;-81
2023/11/08 08:18:47;;;;;;;1.00;0.80;;;;;;;7.74;100.00;98390.38;5080490;28;20205;-81
2023/11/08 08:21:14;;;;;;;1.30;0.60;;;;;;;7.78;100.00;98384.03;5080467;28;20519;-81
2023/11/08 08:23:42;;;;;;;1.70;0.63;;;;;;;7.81;100.00;98389.13;5080432;28;20208;-81
2023/11/08 08:26:08;;;;;;;1.57;0.80;;;;;;;7.89;100.00;98377.25;5080616;28;20614;-81
2023/11/08 08:28:35;;;;;;;1.00;0.90;;;;;;;7.92;100.00;98368.34;5077190;28;20215;-81
2023/11/08 08:31:02;;;;;;;1.00;0.90;;;;;;;7.99;100.00;98372.34;5078658;28;20231;-80
2023/11/08 08:33:28;;;;;;;3.57;1.10;;;;;;;8.05;100.00;98374.63;5078411;28;20706;-80
2023/11/08 08:35:56;;;;;;;0.83;0.70;;;;;;;8.12;100.00;98375.97;5078058;28;20224;-80
2023/11/08 08:38:23;;;;;;;1.33;0.70;;;;;;;8.17;100.00;98368.69;5078082;28;20566;-80
2023/11/08 08:40:52;;;;;;;1.43;0.80;;;;;;;8.18;100.00;98365.97;5079289;28;20298;-79
2023/11/08 08:43:20;;;;;;;0.87;0.70;;;;;;;8.19;100.00;98365.06;5076926;28;20205;-82
2023/11/08 08:45:47;;;;;;;3.13;0.70;;;;;;;8.27;100.00;98351.47;5076182;28;20205;-80
2023/11/08 08:48:14;;;;;;;0.67;0.67;;;;;;;8.31;100.00;98360.88;5075783;28;20286;-81
2023/11/08 08:50:41;;;;;;;2.43;1.13;;;;;;;8.40;100.00;98360.38;5076545;28;20209;-80
2023/11/08 08:53:07;;;;;;;2.47;1.90;;;;;;;8.46;100.00;98365.28;5076524;28;20232;-80
2023/11/08 08:55:35;;;;;;;1.60;0.60;;;;;;;8.57;100.00;98370.81;5075985;28;20207;-80
2023/11/08 08:58:04;;;;;;;1.20;0.70;;;;;;;8.56;100.00;98361.22;5076603;28;20521;-81
2023/11/08 09:00:31;;;;;;;2.23;0.63;;;;;;;8.64;100.00;98359.81;5076321;28;20259;-80
2023/11/08 09:02:57;;;;;;;1.73;0.83;;;;;;;8.65;100.00;98363.31;5075782;28;20242;-80
2023/11/08 09:05:24;;;;;;;1.13;0.67;;;;;;;8.66;100.00;98357.09;5076567;28;20562;-81
2023/11/08 09:07:51;;;;;;;1.57;0.70;;;;;;;8.76;100.00;98348.56;5076572;28;20585;-81
2023/11/08 09:10:20;;;;;;;1.20;1.10;;;;;;;8.75;100.00;98351.28;5076978;28;20214;-81
2023/11/08 09:12:47;;;;;;;0.70;0.63;;;;;;;8.83;100.00;98356.97;5076832;28;20233;-80
2023/11/08 09:15:15;;;;;;;1.17;0.60;;;;;;;8.96;100.00;98350.03;5076375;28;20225;-81
2023/11/08 09:17:42;;;;;;;0.83;0.60;;;;;;;8.95;100.00;98343.91;5075926;28;20209;-80
2023/11/08 09:20:09;;;;;;;0.93;0.60;;;;;;;9.02;100.00;98349.66;5075745;28;20205;-80
2023/11/08 09:22:36;;;;;;;0.80;0.70;;;;;;;9.02;100.00;98349.66;5075832;28;20223;-81
2023/11/08 09:25:04;;;;;;;1.43;0.80;;;;;;;9.01;100.00;98359.34;5076237;28;20221;-81
2023/11/08 09:27:31;;;;;;;2.97;0.83;;;;;;;9.11;100.00;98354.41;5076386;28;20215;-80
2023/11/08 09:29:57;;;;;;;1.90;0.70;;;;;;;9.18;100.00;98359.19;5077093;28;20250;-81
2023/11/08 09:32:27;;;;;;;0.60;0.60;;;;;;;9.13;99.38;98352.50;5076222;28;20709;-81
2023/11/08 09:34:53;;;;;;;1.43;0.87;;;;;;;9.14;100.00;98360.34;5076397;28;20266;-80
2023/11/08 09:37:20;;;;;;;0.83;0.60;;;;;;;9.09;98.81;98357.13;5076657;28;20663;-80
2023/11/08 09:39:49;;;;;;;2.17;0.80;;;;;;;9.09;99.62;98356.25;5075436;28;20205;-81
2023/11/08 09:42:17;;;;;;;0.93;0.60;;;;;;;9.11;100.00;98352.59;5075249;28;20222;-80
2023/11/08 09:44:46;;;;;;;1.60;0.80;;;;;;;9.13;100.00;98361.25;5075036;28;20232;-80
2023/11/08 09:47:13;;;;;;;1.37;0.80;;;;;;;9.39;100.00;98372.88;5075137;28;20215;-80
2023/11/08 09:49:42;;;;;;;0.93;0.60;;;;;;;9.43;100.00;98358.56;5074894;28;20216;-80
2023/11/08 09:52:11;;;;;;;0.70;0.63;;;;;;;9.43;100.00;98371.75;5074791;28;20238;-80
2023/11/08 09:54:39;;;;;;;1.20;0.80;;;;;;;9.42;100.00;98364.78;5075219;28;20297;-80
2023/11/08 09:57:06;;;;;;;1.10;0.70;;;;;;;9.38;100.00;98358.00;5075132;28;20207;-81
2023/11/08 09:59:33;;;;;;;3.80;0.80;;;;;;;9.53;98.24;98357.03;5075452;28;20700;-80
2023/11/08 10:02:04;;;;;;;2.40;0.90;;;;;;;9.51;96.89;98353.66;5075090;28;20234;-80
2023/11/08 10:04:31;;;;;;;2.43;0.70;;;;;;;9.54;97.45;98364.03;5075219;28;20202;-80
2023/11/08 10:06:59;;;;;;;5.80;0.93;;;;;;;9.62;97.99;98372.34;5075163;28;20678;-80
2023/11/08 10:09:31;;;;;;;2.00;0.60;;;;;;;9.69;97.70;98363.94;5075113;28;20227;-80
2023/11/08 10:11:58;;;;;;;2.20;0.77;;;;;;;9.85;96.44;98348.00;5074587;28;20240;-81
2023/11/08 10:14:32;;;;;;;2.40;1.10;;;;;;;10.07;95.95;98351.84;5074314;28;20206;-80
2023/11/08 10:16:58;;;;;;;1.40;1.30;;;;;;;10.27;95.32;98338.22;5076122;28;20193;-81
2023/11/08 10:19:38;;;;;;;1.00;0.67;;;;;;;10.44;93.45;98326.53;5079124;28;20212;-80
2023/11/08 10:22:07;;;;;;;1.80;0.60;;;;;;;10.45;89.61;98317.69;5079568;28;20231;-81
2023/11/08 10:24:33;;;;;;;1.83;0.70;;;;;;;10.51;89.81;98326.03;5079655;28;20587;-81
2023/11/08 10:27:11;;;;;;;0.83;0.60;;;;;;;10.52;90.93;98327.72;5080059;28;20213;-81
2023/11/08 10:29:38;;;;;;;1.00;0.67;;;;;;;10.52;88.06;98305.75;5079646;28;20359;-80
2023/11/08 10:32:18;;;;;;;0.53;0.50;;;;;;;10.48;87.41;98314.81;5079063;28;20282;-80
2023/11/08 10:34:45;;;;;;;0.70;0.70;;;;;;;10.47;89.04;98321.06;5079542;28;20242;-81
2023/11/08 10:37:24;;;;;;;0.50;0.50;;;;;;;10.50;89.59;98323.50;5080205;28;20244;-81
2023/11/08 10:39:51;;;;;;;1.30;1.10;;;;;;;10.58;89.50;98316.75;5080262;28;20209;-80
2023/11/08 10:42:18;;;;;;;1.80;0.90;;;;;;;10.65;86.15;98304.00;5080421;28;20245;-80
2023/11/08 10:44:44;;;;;;;1.83;0.60;;;;;;;10.59;84.29;98307.03;5080249;28;20206;-80
2023/11/08 10:47:12;;;;;;;0.97;0.57;;;;;;;10.62;85.51;98305.03;5080023;28;20221;-80
2023/11/08 10:49:40;;;;;;;1.67;0.80;;;;;;;10.60;83.77;98300.81;5080108;28;20628;-80
2023/11/08 10:52:10;;;;;;;1.00;0.70;;;;;;;10.59;84.92;98299.94;5079523;28;20242;-80
2023/11/08 10:54:39;;;;;;;0.63;0.63;;;;;;;10.66;86.21;98295.09;5079769;28;20261;-80
2023/11/08 10:57:06;;;;;;;1.97;0.80;;;;;;;10.77;86.13;98292.59;5079691;28;20211;-80
2023/11/08 10:59:36;;;;;;;0.93;0.60;;;;;;;10.81;86.30;98299.34;5080886;28;20236;-80
2023/11/08 11:02:24;;;;;;;0.90;0.70;;;;;;;10.87;85.43;98283.06;5079839;28;20245;-80
2023/11/08 11:05:03;;;;;;;1.17;0.67;;;;;;;10.88;84.92;98287.44;5079615;28;20215;-82
2023/11/08 11:07:31;;;;;;;0.70;0.53;;;;;;;10.92;85.64;98287.13;5080828;28;20197;-83
2023/11/08 11:09:59;;;;;;;1.30;0.73;;;;;;;11.03;86.94;98284.59;5080405;28;20204;-78
2023/11/08 11:12:36;;;;;;;0.90;0.70;;;;;;;11.13;86.23;98276.88;5081119;28;20258;-84
2023/11/08 11:15:09;;;;;;;1.17;0.60;;;;;;;11.24;85.20;98277.81;5081871;28;20207;-82
2023/11/08 11:17:42;;;;;;;0.50;0.50;;;;;;;11.34;84.86;98267.44;5080813;28;20349;-83
2023/11/08 11:20:13;;;;;;;0.90;0.70;;;;;;;11.40;85.13;98264.34;5082606;28;20266;-80
2023/11/08 11:22:41;;;;;;;1.00;0.68;;;;;;;11.44;84.31;98264.03;5086751;28;20483;-80
2023/11/08 11:25:11;;;;;;;1.10;0.60;;;;;;;11.46;83.74;98255.97;5075948;28;20295;-76
2023/11/08 11:27:47;;;;;;;0.73;0.70;;;;;;;11.44;82.84;98265.84;5073177;28;20661;-77
2023/11/08 11:30:27;;;;;;;1.17;0.77;;;;;;;11.38;82.47;98263.63;5077410;28;20701;-80
2023/11/08 11:32:54;;;;;;;0.70;0.60;;;;;;;11.33;83.72;98266.59;5083820;28;20658;-81
2023/11/08 11:36:00;;;;;;;1.83;0.83;;;;;;;11.31;83.99;98272.94;5074629;28;20217;-77